createdAt,value
2022-10-02T10:14:02.057Z,2.30
2022-10-02T10:23:49.482Z,3.90
2022-10-02T10:27:08.258Z,2.30
2022-10-02T10:35:03.279Z,2.90
2022-10-02T10:38:08.907Z,2.90
2022-10-02T10:40:46.881Z,2.50
2022-10-02T10:43:46.360Z,2.90
2022-10-02T10:46:46.816Z,3.40
2022-10-02T10:49:32.401Z,3.10
2022-10-02T10:52:46.281Z,2.70
2022-10-02T10:55:33.042Z,4.20
2022-10-02T10:58:41.355Z,3.70
2022-10-02T11:01:37.886Z,2.50
2022-10-02T11:04:36.485Z,4.10
2022-10-02T11:07:34.801Z,3.40
2022-10-02T11:10:21.887Z,3.50
2022-10-02T11:13:15.483Z,3.70
2022-10-02T11:15:51.898Z,4.70
2022-10-02T11:18:53.221Z,4.90
2022-10-02T11:21:47.324Z,3.70
2022-10-02T11:24:34.878Z,4.10
2022-10-02T11:27:11.480Z,4.90
2022-10-02T11:29:50.572Z,4.70
2022-10-02T11:32:27.640Z,4.80
2022-10-02T11:35:27.903Z,4.80
2022-10-02T11:38:27.003Z,5.40
2022-10-02T11:41:07.027Z,5.20
2022-10-02T11:43:43.273Z,5.00
2022-10-02T11:46:37.982Z,4.50
2022-10-02T11:49:41.623Z,5.10
2022-10-02T11:52:18.369Z,4.60
2022-10-02T11:55:07.565Z,4.80
2022-10-02T11:57:34.443Z,5.20
2022-10-02T12:00:07.448Z,7.00
2022-10-02T12:03:04.321Z,6.20
2022-10-02T12:05:56.090Z,7.60
2022-10-02T12:08:49.678Z,5.30
2022-10-02T12:11:25.242Z,5.10
2022-10-02T12:14:02.302Z,5.50
2022-10-02T12:17:06.700Z,4.70
2022-10-02T12:20:08.844Z,4.40
2022-10-02T12:23:07.418Z,4.00
2022-10-02T12:25:58.720Z,4.10
2022-10-02T12:28:40.595Z,3.70
2022-10-02T12:31:27.231Z,3.70
2022-10-02T12:34:24.990Z,3.70
2022-10-02T12:37:15.081Z,3.90
2022-10-02T12:39:55.369Z,3.90
2022-10-02T12:42:40.307Z,3.60
2022-10-02T12:45:43.221Z,3.80
2022-10-02T12:48:25.533Z,4.10
2022-10-02T12:51:39.045Z,4.20
2022-10-02T12:54:42.316Z,4.20
2022-10-02T12:57:42.685Z,4.20
2022-10-02T13:00:23.127Z,4.00
2022-10-02T13:03:35.239Z,4.20
2022-10-02T13:07:25.579Z,5.10
2022-10-02T13:09:38.564Z,4.60
2022-10-02T13:12:15.107Z,4.50
2022-10-02T13:25:33.522Z,3.60
2022-10-02T13:29:01.536Z,3.50
2022-10-02T14:22:36.348Z,3.20
2022-10-02T14:22:48.860Z,3.70
2022-10-02T14:25:22.265Z,3.70
2022-10-02T14:28:28.169Z,4.90
2022-10-02T14:33:22.215Z,3.50
2022-10-02T14:35:20.176Z,3.60
2022-10-02T14:38:38.629Z,3.30
2022-10-02T14:41:55.356Z,4.60
2022-10-02T14:44:59.117Z,3.80
2022-10-02T14:47:54.350Z,4.40
2022-10-02T14:50:40.627Z,4.00
2022-10-02T14:53:25.391Z,3.60
2022-10-02T14:56:07.257Z,3.80
2022-10-02T14:58:45.386Z,3.60
2022-10-02T15:01:23.468Z,4.50
2022-10-02T15:04:00.354Z,4.50
2022-10-02T15:06:56.431Z,3.80
2022-10-02T15:10:01.626Z,4.00
2022-10-02T15:29:29.428Z,4.30
2022-10-02T16:00:16.553Z,4.00
2022-10-02T16:51:25.523Z,8.70
2022-10-02T16:54:50.806Z,6.10
2022-10-02T16:57:42.892Z,7.70
2022-10-02T17:00:46.213Z,6.50
2022-10-02T17:21:53.997Z,8.40
2022-10-02T17:24:18.590Z,8.60
2022-10-02T17:34:58.781Z,8.50
2022-10-02T18:28:35.541Z,8.70
2022-10-02T18:33:45.057Z,12.60
2022-10-02T18:44:45.448Z,9.00
2022-10-02T18:47:42.343Z,8.40
2022-10-02T18:50:54.402Z,8.00
2022-10-02T18:53:44.888Z,8.90
2022-10-02T18:56:37.810Z,8.00
2022-10-02T18:59:29.983Z,8.20
2022-10-02T19:02:29.958Z,7.20
2022-10-02T19:05:32.864Z,6.20
2022-10-02T19:08:07.177Z,6.90
2022-10-02T19:10:34.982Z,7.50
2022-10-02T19:13:17.320Z,8.10
2022-10-02T19:15:54.473Z,12.90
2022-10-02T19:18:26.720Z,11.30
2022-10-02T19:20:59.153Z,8.30
2022-10-02T19:23:52.664Z,6.00
2022-10-02T19:36:16.979Z,6.00
2022-10-02T20:13:16.082Z,4.70
2022-10-02T20:16:40.753Z,5.10
